KICT/ICT METAR and TAF weather

Enter ICAO airport designator
Station Type Date Time Source
KICT METAR 2019/06/27 07:53 UTC NOAA

KICT 270753Z 17011KT 10SM SCT250 25/21 A3007 RMK AO2 SLP165 T02500206


Station Type Date Time Source
KICT Decoded METAR 2019/06/27 07:53 UTC NOAA

WICHITA MID-CONTINENT AIRPORT , KS, United States (KICT) 37-39N 97-26W 408M
Jun 27, 2019 - 03:53 AM EDT / 2019.06.27 0753 UTC
Wind: from the S (170 degrees) at 13 MPH (11 KT):0
Visibility: 10 mile(s):0
Sky conditions: partly cloudy
Temperature: 77.0 F (25.0 C)
Dew Point: 69.1 F (20.6 C)
Relative Humidity: 76%
Pressure (altimeter): 30.07 in. Hg (1018 hPa)
ob: KICT 270753Z 17011KT 10SM SCT250 25/21 A3007 RMK AO2 SLP165 T02500206
cycle: 8

Station Type Date Time Source
KICT TAF 2019/06/27 06:22 UTC NOAA

TAF KICT 270520Z 2706/2806 18012KT P6SM SCT250 WS020/23035KT
FM271100 19015KT P6SM SCT250
FM271600 18016G24KT P6SM FEW090

Example: see airport list